createdAt,value
2023-03-26T00:00:15.702Z,0.00
2023-03-26T00:01:15.749Z,0.00
2023-03-26T00:02:15.679Z,0.00
2023-03-26T00:03:15.730Z,0.00
2023-03-26T00:04:15.668Z,0.00
2023-03-26T00:05:15.665Z,0.00
2023-03-26T00:06:15.606Z,0.00
2023-03-26T00:07:15.627Z,0.00
2023-03-26T00:08:15.600Z,0.00
2023-03-26T00:09:15.610Z,0.00
2023-03-26T00:10:15.588Z,0.00
2023-03-26T00:11:15.599Z,0.00
2023-03-26T00:12:15.579Z,0.00
2023-03-26T00:13:15.536Z,0.00
2023-03-26T00:14:15.563Z,0.00
2023-03-26T00:15:15.520Z,0.00
2023-03-26T00:16:15.547Z,0.00
2023-03-26T00:17:15.482Z,0.00
2023-03-26T00:18:15.521Z,0.00
2023-03-26T00:19:15.496Z,0.00
2023-03-26T00:20:15.463Z,0.00
2023-03-26T00:21:15.435Z,0.00
2023-03-26T00:22:15.446Z,0.00
2023-03-26T00:23:15.454Z,0.00
2023-03-26T00:24:15.594Z,0.00
2023-03-26T00:25:15.436Z,0.00
2023-03-26T00:26:15.388Z,0.00
2023-03-26T00:27:15.401Z,0.00
2023-03-26T00:28:15.398Z,0.00
2023-03-26T00:29:15.350Z,0.00
2023-03-26T00:30:15.383Z,0.00
2023-03-26T00:31:15.457Z,0.00
2023-03-26T00:32:15.341Z,0.00
2023-03-26T00:33:15.365Z,0.00
2023-03-26T00:34:15.362Z,0.00
2023-03-26T00:35:15.355Z,0.00
2023-03-26T00:36:15.338Z,0.00
2023-03-26T00:37:15.278Z,0.00
2023-03-26T00:38:15.319Z,0.00
2023-03-26T00:39:15.317Z,0.00
2023-03-26T00:40:15.265Z,0.00
2023-03-26T00:41:15.237Z,0.00
2023-03-26T00:42:15.221Z,0.00
2023-03-26T00:43:15.217Z,0.00
2023-03-26T00:44:15.237Z,0.00
2023-03-26T00:45:15.194Z,0.00
2023-03-26T00:46:15.290Z,0.00
2023-03-26T00:47:15.195Z,0.00
2023-03-26T00:48:15.220Z,0.00
2023-03-26T00:49:15.140Z,0.00
2023-03-26T00:50:15.184Z,0.00
2023-03-26T00:51:15.148Z,0.00
2023-03-26T00:52:15.124Z,0.00
2023-03-26T00:53:15.142Z,0.00
2023-03-26T00:54:15.148Z,0.00
2023-03-26T00:55:15.148Z,0.00
2023-03-26T00:56:15.063Z,0.00
2023-03-26T00:57:25.639Z,0.00
2023-03-26T00:58:16.110Z,0.00
2023-03-26T00:59:15.116Z,0.00
2023-03-26T01:00:15.092Z,0.00
2023-03-26T01:01:15.077Z,0.00
2023-03-26T01:02:15.063Z,0.00
2023-03-26T01:03:24.854Z,0.00
2023-03-26T01:04:16.142Z,0.00
2023-03-26T01:05:15.013Z,0.00
2023-03-26T01:06:14.991Z,0.00
2023-03-26T01:07:14.949Z,0.00
2023-03-26T01:08:14.970Z,0.00
2023-03-26T01:09:14.979Z,0.00
2023-03-26T01:10:14.921Z,0.00
2023-03-26T01:11:14.921Z,0.00
2023-03-26T01:12:14.926Z,0.00
2023-03-26T01:13:14.926Z,0.00
2023-03-26T01:14:14.903Z,0.00
2023-03-26T01:15:14.899Z,0.00
2023-03-26T01:16:14.943Z,0.00
2023-03-26T01:17:14.894Z,0.00
2023-03-26T01:18:14.848Z,0.00
2023-03-26T01:19:14.869Z,0.00
2023-03-26T01:20:14.830Z,0.00
2023-03-26T01:21:14.827Z,0.00
2023-03-26T01:22:14.841Z,0.00
2023-03-26T01:23:14.803Z,0.00
2023-03-26T01:24:14.853Z,0.00
2023-03-26T01:25:14.795Z,0.00
2023-03-26T01:26:14.756Z,0.00
2023-03-26T01:27:14.797Z,0.00
2023-03-26T01:28:14.775Z,0.00
2023-03-26T01:29:14.766Z,0.00
2023-03-26T01:30:14.704Z,0.00
2023-03-26T01:31:14.713Z,0.00
2023-03-26T01:32:14.766Z,0.00
2023-03-26T01:33:14.783Z,0.00
2023-03-26T01:34:14.694Z,0.00
2023-03-26T01:35:14.697Z,0.00
2023-03-26T01:36:14.672Z,0.00
2023-03-26T01:37:14.697Z,0.00
2023-03-26T01:38:14.696Z,0.00
2023-03-26T01:39:14.701Z,0.00
2023-03-26T01:40:14.610Z,0.00
2023-03-26T01:41:14.584Z,0.00
2023-03-26T01:42:14.608Z,0.00
2023-03-26T01:43:14.613Z,0.00
2023-03-26T01:44:14.584Z,0.00
2023-03-26T01:45:14.579Z,0.00
2023-03-26T01:46:14.582Z,0.00
2023-03-26T01:47:14.534Z,0.00
2023-03-26T01:48:14.574Z,0.00
2023-03-26T01:49:14.534Z,0.00
2023-03-26T01:50:14.560Z,0.00
2023-03-26T01:51:14.512Z,0.00
2023-03-26T01:52:14.511Z,0.00
2023-03-26T01:53:14.489Z,0.00
2023-03-26T01:54:14.464Z,0.00
2023-03-26T01:55:14.517Z,0.00
2023-03-26T01:56:14.441Z,0.00
2023-03-26T01:57:14.444Z,0.00
2023-03-26T01:58:14.455Z,0.00
2023-03-26T01:59:14.430Z,0.00
2023-03-26T02:00:14.452Z,0.00
2023-03-26T02:01:14.469Z,0.00
2023-03-26T02:02:14.504Z,0.00
2023-03-26T02:03:14.537Z,0.00
2023-03-26T02:04:14.352Z,0.00
2023-03-26T02:05:14.397Z,0.00
2023-03-26T02:06:14.354Z,0.00
2023-03-26T02:07:14.357Z,0.00
2023-03-26T02:08:14.332Z,0.00
2023-03-26T02:09:14.318Z,0.00
2023-03-26T02:10:14.320Z,0.00
2023-03-26T02:11:14.403Z,0.00
2023-03-26T02:12:14.264Z,0.00
2023-03-26T02:13:14.282Z,0.00
2023-03-26T02:14:14.352Z,0.00
2023-03-26T02:15:14.235Z,0.00
2023-03-26T02:16:14.451Z,0.00
2023-03-26T02:17:14.209Z,0.00
2023-03-26T02:18:14.230Z,0.00
2023-03-26T02:19:14.231Z,0.00
2023-03-26T02:20:14.223Z,0.00
2023-03-26T02:21:14.255Z,0.00
2023-03-26T02:22:14.179Z,0.00
2023-03-26T02:23:14.164Z,0.00
2023-03-26T02:24:14.149Z,0.00
2023-03-26T02:25:14.149Z,0.00
2023-03-26T02:26:14.173Z,0.00
2023-03-26T02:27:14.118Z,0.00
2023-03-26T02:28:14.111Z,0.00
2023-03-26T02:29:14.085Z,0.00
2023-03-26T02:30:14.094Z,0.00
2023-03-26T02:31:14.178Z,0.00
2023-03-26T02:32:14.090Z,0.00
2023-03-26T02:33:14.058Z,0.00
2023-03-26T02:34:14.052Z,0.00
2023-03-26T02:35:14.076Z,0.00
2023-03-26T02:36:14.260Z,0.00
2023-03-26T02:37:14.048Z,0.00
2023-03-26T02:38:14.076Z,0.00
2023-03-26T02:39:13.989Z,0.00
2023-03-26T02:40:13.988Z,0.00
2023-03-26T02:41:13.980Z,0.00
2023-03-26T02:42:14.000Z,0.00
2023-03-26T02:43:13.965Z,0.00
2023-03-26T02:44:13.933Z,0.00
2023-03-26T02:45:13.938Z,0.00
2023-03-26T02:46:13.914Z,0.00
2023-03-26T02:47:13.905Z,0.00
2023-03-26T02:48:13.874Z,0.00
2023-03-26T02:49:13.877Z,0.00
2023-03-26T02:50:13.858Z,0.00
2023-03-26T02:51:13.882Z,0.00
2023-03-26T02:52:13.925Z,0.00
2023-03-26T02:53:13.889Z,0.00
2023-03-26T02:54:13.832Z,0.00
2023-03-26T02:55:13.840Z,0.00
2023-03-26T02:56:13.835Z,0.00
2023-03-26T02:57:13.854Z,0.00
2023-03-26T02:58:13.794Z,0.00
2023-03-26T02:59:13.781Z,0.00
2023-03-26T03:00:13.750Z,0.00
2023-03-26T03:01:13.816Z,0.00
2023-03-26T03:02:13.809Z,0.00
2023-03-26T03:03:13.831Z,0.00
2023-03-26T03:04:13.723Z,0.00
2023-03-26T03:05:13.719Z,0.00
2023-03-26T03:06:13.709Z,0.00
2023-03-26T03:07:13.716Z,0.00
2023-03-26T03:08:13.724Z,0.00
2023-03-26T03:09:13.655Z,0.00
2023-03-26T03:10:13.644Z,0.00
2023-03-26T03:11:14.852Z,0.00
2023-03-26T03:12:13.653Z,0.00
2023-03-26T03:13:13.679Z,0.00
2023-03-26T03:14:13.622Z,0.00
2023-03-26T03:15:13.623Z,0.00
2023-03-26T03:16:13.655Z,0.00
2023-03-26T03:17:13.572Z,0.00
2023-03-26T03:18:13.630Z,0.00
2023-03-26T03:19:13.549Z,0.00
2023-03-26T03:20:13.529Z,0.00
2023-03-26T03:21:13.559Z,0.00
2023-03-26T03:22:13.513Z,0.00
2023-03-26T03:23:13.563Z,0.00
2023-03-26T03:24:13.510Z,0.00
2023-03-26T03:25:13.502Z,0.00
2023-03-26T03:26:13.491Z,0.00
2023-03-26T03:27:13.492Z,0.00
2023-03-26T03:28:13.451Z,0.00
2023-03-26T03:29:13.436Z,0.00
2023-03-26T03:30:13.512Z,0.00
2023-03-26T03:31:13.586Z,0.00
2023-03-26T03:32:13.455Z,0.00
2023-03-26T03:33:13.473Z,0.00
2023-03-26T03:34:13.407Z,0.00
2023-03-26T03:35:13.411Z,0.00
2023-03-26T03:36:20.175Z,0.00
2023-03-26T03:37:14.406Z,0.00
2023-03-26T03:38:13.372Z,0.00
2023-03-26T03:39:13.359Z,0.00
2023-03-26T03:40:13.389Z,0.00
2023-03-26T03:41:13.324Z,0.00
2023-03-26T03:42:13.325Z,0.00
2023-03-26T03:43:13.331Z,0.00
2023-03-26T03:44:13.300Z,0.00
2023-03-26T03:45:13.317Z,0.00
2023-03-26T03:46:13.300Z,0.00
2023-03-26T03:47:13.314Z,0.00
2023-03-26T03:48:13.237Z,0.00
2023-03-26T03:49:13.257Z,0.00
2023-03-26T03:50:13.284Z,0.00
2023-03-26T03:51:13.218Z,0.00
2023-03-26T03:52:13.229Z,0.00
2023-03-26T03:53:13.238Z,0.00
2023-03-26T03:54:13.175Z,0.00
2023-03-26T03:55:13.227Z,0.00
2023-03-26T03:56:13.175Z,0.00
2023-03-26T03:57:13.217Z,0.00
2023-03-26T03:58:13.152Z,0.00
2023-03-26T03:59:13.151Z,0.00
2023-03-26T04:00:13.172Z,0.00
2023-03-26T04:01:13.141Z,0.00
2023-03-26T04:02:13.153Z,0.00
2023-03-26T04:03:13.206Z,0.00
2023-03-26T04:04:13.173Z,0.00
2023-03-26T04:05:13.065Z,0.00
2023-03-26T04:06:13.097Z,0.00
2023-03-26T04:07:13.052Z,0.00
2023-03-26T04:08:13.063Z,0.00
2023-03-26T04:09:13.026Z,0.00
2023-03-26T04:10:13.062Z,0.00
2023-03-26T04:11:13.106Z,0.00
2023-03-26T04:12:13.036Z,0.00
2023-03-26T04:13:12.994Z,0.00
2023-03-26T04:14:12.982Z,0.00
2023-03-26T04:15:13.044Z,0.00
2023-03-26T04:16:13.101Z,0.00
2023-03-26T04:17:12.947Z,0.00
2023-03-26T04:18:12.919Z,0.00
2023-03-26T04:19:12.952Z,0.00
2023-03-26T04:20:12.935Z,0.00
2023-03-26T04:21:12.887Z,0.00
2023-03-26T04:22:12.910Z,0.00
2023-03-26T04:23:12.919Z,0.00
2023-03-26T04:24:12.912Z,0.00
2023-03-26T04:25:12.892Z,0.00
2023-03-26T04:26:12.822Z,0.00
2023-03-26T04:27:12.807Z,0.00
2023-03-26T04:28:12.819Z,0.00
2023-03-26T04:29:12.853Z,0.00
2023-03-26T04:30:12.846Z,0.00
2023-03-26T04:31:12.783Z,0.00
2023-03-26T04:32:12.733Z,0.00
2023-03-26T04:33:12.737Z,0.00
2023-03-26T04:34:12.964Z,0.00
2023-03-26T04:35:12.744Z,0.00
2023-03-26T04:36:12.763Z,0.00
2023-03-26T04:37:12.702Z,0.00
2023-03-26T04:38:12.671Z,0.00
2023-03-26T04:39:12.643Z,0.00
2023-03-26T04:40:12.660Z,0.00
2023-03-26T04:41:12.657Z,0.00
2023-03-26T04:42:12.638Z,0.00
2023-03-26T04:43:12.641Z,0.00
2023-03-26T04:44:12.609Z,0.00
2023-03-26T04:45:12.578Z,0.00
2023-03-26T04:46:12.610Z,0.00
2023-03-26T04:47:12.596Z,0.00
2023-03-26T04:48:12.577Z,0.00
2023-03-26T04:49:12.539Z,0.00
2023-03-26T04:50:12.566Z,0.00
2023-03-26T04:51:12.518Z,0.00
2023-03-26T04:52:12.530Z,0.00
2023-03-26T04:53:12.507Z,0.00
2023-03-26T04:54:12.494Z,0.00
2023-03-26T04:55:12.495Z,5.62
2023-03-26T04:56:12.470Z,5.62
2023-03-26T04:57:12.483Z,5.62
2023-03-26T04:58:12.462Z,5.62
2023-03-26T04:59:12.488Z,5.62
2023-03-26T05:00:12.442Z,5.62
2023-03-26T05:01:12.433Z,5.62
2023-03-26T05:02:12.442Z,5.62
2023-03-26T05:03:12.403Z,5.62
2023-03-26T05:04:13.400Z,5.62
2023-03-26T05:05:12.377Z,5.62
2023-03-26T05:06:12.363Z,11.25
2023-03-26T05:07:12.379Z,11.25
2023-03-26T05:08:12.374Z,11.25
2023-03-26T05:09:12.348Z,11.25
2023-03-26T05:10:12.322Z,11.25
2023-03-26T05:11:12.327Z,11.25
2023-03-26T05:12:12.335Z,11.25
2023-03-26T05:13:12.333Z,11.25
2023-03-26T05:14:12.283Z,16.88
2023-03-26T05:15:12.281Z,16.88
2023-03-26T05:16:12.316Z,11.25
2023-03-26T05:17:12.264Z,11.25
2023-03-26T05:18:12.267Z,16.88
2023-03-26T05:19:12.243Z,11.25
2023-03-26T05:20:12.215Z,11.25
2023-03-26T05:21:12.256Z,11.25
2023-03-26T05:22:12.204Z,11.25
2023-03-26T05:23:12.208Z,11.25
2023-03-26T05:24:12.169Z,11.25
2023-03-26T05:25:12.182Z,11.25
2023-03-26T05:26:12.196Z,16.88
2023-03-26T05:27:12.185Z,22.50
2023-03-26T05:28:12.124Z,28.12
2023-03-26T05:29:12.146Z,28.12
2023-03-26T05:30:12.133Z,28.12
2023-03-26T05:31:12.126Z,28.12
2023-03-26T05:32:12.089Z,33.75
2023-03-26T05:33:12.140Z,33.75
2023-03-26T05:34:12.088Z,33.75
2023-03-26T05:35:12.064Z,28.12
2023-03-26T05:36:12.146Z,28.12
2023-03-26T05:37:12.077Z,22.50
2023-03-26T05:38:12.010Z,22.50
2023-03-26T05:39:12.079Z,28.12
2023-03-26T05:40:11.996Z,33.75
2023-03-26T05:41:12.029Z,39.38
2023-03-26T05:42:12.042Z,45.00
2023-03-26T05:43:12.087Z,45.00
2023-03-26T05:44:11.995Z,39.38
2023-03-26T05:45:11.966Z,39.38
2023-03-26T05:46:12.125Z,39.38
2023-03-26T05:47:11.994Z,45.00
2023-03-26T05:48:11.970Z,39.38
2023-03-26T05:49:11.928Z,39.38
2023-03-26T05:50:11.932Z,39.38
2023-03-26T05:51:11.893Z,39.38
2023-03-26T05:52:11.884Z,33.75
2023-03-26T05:53:11.869Z,28.12
2023-03-26T05:54:11.888Z,28.12
2023-03-26T05:55:11.845Z,28.12
2023-03-26T05:56:11.838Z,28.12
2023-03-26T05:57:11.855Z,33.75
2023-03-26T05:58:11.806Z,39.38
2023-03-26T05:59:11.845Z,45.00
2023-03-26T06:00:11.796Z,45.00
2023-03-26T06:01:11.819Z,45.00
2023-03-26T06:02:11.801Z,50.62
2023-03-26T06:03:11.956Z,50.62
2023-03-26T06:04:11.858Z,50.62
2023-03-26T06:05:11.777Z,45.00
2023-03-26T06:06:11.762Z,33.75
2023-03-26T06:07:11.715Z,28.12
2023-03-26T06:08:11.712Z,28.12
2023-03-26T06:09:11.707Z,28.12
2023-03-26T06:10:11.696Z,28.12
2023-03-26T06:11:12.690Z,22.50
2023-03-26T06:12:11.655Z,22.50
2023-03-26T06:13:11.655Z,28.12
2023-03-26T06:14:11.652Z,39.38
2023-03-26T06:15:11.670Z,50.62
2023-03-26T06:16:26.195Z,67.50
2023-03-26T06:17:12.627Z,73.12
2023-03-26T06:18:11.664Z,84.38
2023-03-26T06:19:11.726Z,84.38
2023-03-26T06:20:11.584Z,84.38
2023-03-26T06:21:11.625Z,78.75
2023-03-26T06:22:11.539Z,56.25
2023-03-26T06:23:11.534Z,50.62
2023-03-26T06:24:11.534Z,50.62
2023-03-26T06:25:11.547Z,67.50
2023-03-26T06:26:11.506Z,73.12
2023-03-26T06:27:11.512Z,90.00
2023-03-26T06:28:11.505Z,112.50
2023-03-26T06:29:11.505Z,118.12
2023-03-26T06:30:11.526Z,106.88
2023-03-26T06:31:11.489Z,95.62
2023-03-26T06:32:19.679Z,95.62
2023-03-26T06:33:12.443Z,95.62
2023-03-26T06:34:11.460Z,106.88
2023-03-26T06:35:11.425Z,112.50
2023-03-26T06:36:11.479Z,123.75
2023-03-26T06:37:11.446Z,123.75
2023-03-26T06:38:11.369Z,123.75
2023-03-26T06:39:11.402Z,123.75
2023-03-26T06:40:11.584Z,112.50
2023-03-26T06:41:11.382Z,95.62
2023-03-26T06:42:11.342Z,84.38
2023-03-26T06:43:11.362Z,67.50
2023-03-26T06:44:11.382Z,73.12
2023-03-26T06:45:11.333Z,90.00
2023-03-26T06:46:11.328Z,90.00
2023-03-26T06:47:11.335Z,84.38
2023-03-26T06:48:11.295Z,73.12
2023-03-26T06:49:11.281Z,78.75
2023-03-26T06:50:11.310Z,73.12
2023-03-26T06:51:11.278Z,67.50
2023-03-26T06:52:11.273Z,67.50
2023-03-26T06:53:11.233Z,73.12
2023-03-26T06:54:11.213Z,73.12
2023-03-26T06:55:11.250Z,78.75
2023-03-26T06:56:11.265Z,84.38
2023-03-26T06:57:11.319Z,101.25
2023-03-26T06:58:11.162Z,118.12
2023-03-26T06:59:11.204Z,140.62
2023-03-26T07:00:11.159Z,157.50
2023-03-26T07:01:11.186Z,168.75
2023-03-26T07:02:11.140Z,180.00
2023-03-26T07:03:11.133Z,185.62
2023-03-26T07:04:11.139Z,196.88
2023-03-26T07:05:11.104Z,213.75
2023-03-26T07:06:11.118Z,241.88
2023-03-26T07:07:11.085Z,253.12
2023-03-26T07:08:11.083Z,275.62
2023-03-26T07:09:11.088Z,315.00
2023-03-26T07:10:11.042Z,286.88
2023-03-26T07:11:11.054Z,247.50
2023-03-26T07:12:11.016Z,241.88
2023-03-26T07:13:11.023Z,236.25
2023-03-26T07:14:11.015Z,253.12
2023-03-26T07:15:11.001Z,281.25
2023-03-26T07:16:11.012Z,292.50
2023-03-26T07:17:10.983Z,343.12
2023-03-26T07:18:10.980Z,292.50
2023-03-26T07:19:10.962Z,275.62
2023-03-26T07:20:10.940Z,270.00
2023-03-26T07:21:10.924Z,264.38
2023-03-26T07:22:10.921Z,247.50
2023-03-26T07:23:10.919Z,219.38
2023-03-26T07:24:10.967Z,196.88
2023-03-26T07:25:10.871Z,191.25
2023-03-26T07:26:10.863Z,202.50
2023-03-26T07:27:10.869Z,208.12
2023-03-26T07:28:10.860Z,225.00
2023-03-26T07:29:10.916Z,264.38
2023-03-26T07:30:10.825Z,303.75
2023-03-26T07:31:10.842Z,343.12
2023-03-26T07:32:10.837Z,343.12
2023-03-26T07:33:10.787Z,315.00
2023-03-26T07:34:10.850Z,275.62
2023-03-26T07:35:10.793Z,258.75
2023-03-26T07:36:10.794Z,241.88
2023-03-26T07:37:10.773Z,236.25
2023-03-26T07:38:10.797Z,236.25
2023-03-26T07:39:10.770Z,247.50
2023-03-26T07:40:10.758Z,247.50
2023-03-26T07:41:10.731Z,236.25
2023-03-26T07:42:10.709Z,236.25
2023-03-26T07:43:10.718Z,241.88
2023-03-26T07:44:10.706Z,236.25
2023-03-26T07:45:10.688Z,230.62
2023-03-26T07:46:10.762Z,236.25
2023-03-26T07:47:10.647Z,230.62
2023-03-26T07:48:10.725Z,230.62
2023-03-26T07:49:11.059Z,219.38
2023-03-26T07:50:10.642Z,219.38
2023-03-26T07:51:10.624Z,213.75
2023-03-26T07:52:10.657Z,208.12
2023-03-26T07:53:10.658Z,196.88
2023-03-26T07:54:10.667Z,185.62
2023-03-26T07:55:10.675Z,191.25
2023-03-26T07:56:10.652Z,185.62
2023-03-26T07:57:10.641Z,180.00
2023-03-26T07:58:10.537Z,157.50
2023-03-26T07:59:10.548Z,151.88
2023-03-26T08:00:11.256Z,151.88
2023-03-26T08:01:10.518Z,157.50
2023-03-26T08:02:10.528Z,146.25
2023-03-26T08:03:10.639Z,135.00
2023-03-26T08:04:23.762Z,146.25
2023-03-26T08:05:11.803Z,163.12
2023-03-26T08:06:11.419Z,163.12
2023-03-26T08:07:10.454Z,157.50
2023-03-26T08:08:10.679Z,157.50
2023-03-26T08:09:10.477Z,163.12
2023-03-26T08:10:10.427Z,168.75
2023-03-26T08:11:10.884Z,174.38
2023-03-26T08:12:10.448Z,180.00
2023-03-26T08:13:10.406Z,185.62
2023-03-26T08:14:10.357Z,191.25
2023-03-26T08:15:10.365Z,191.25
2023-03-26T08:16:10.414Z,196.88
2023-03-26T08:17:10.373Z,208.12
2023-03-26T08:18:10.409Z,213.75
2023-03-26T08:19:10.316Z,191.25
2023-03-26T08:20:10.356Z,180.00
2023-03-26T08:21:10.301Z,191.25
2023-03-26T08:22:10.294Z,241.88
2023-03-26T08:23:10.271Z,270.00
2023-03-26T08:24:10.257Z,309.38
2023-03-26T08:25:10.225Z,309.38
2023-03-26T08:26:10.257Z,298.12
2023-03-26T08:27:10.217Z,286.88
2023-03-26T08:28:10.203Z,292.50
2023-03-26T08:29:10.207Z,303.75
2023-03-26T08:30:10.193Z,315.00
2023-03-26T08:31:10.287Z,326.25
2023-03-26T08:32:10.188Z,326.25
2023-03-26T08:33:10.210Z,315.00
2023-03-26T08:34:10.134Z,303.75
2023-03-26T08:35:10.145Z,303.75
2023-03-26T08:36:10.177Z,298.12
2023-03-26T08:37:10.139Z,298.12
2023-03-26T08:38:10.106Z,286.88
2023-03-26T08:39:10.077Z,286.88
2023-03-26T08:40:10.114Z,298.12
2023-03-26T08:41:10.083Z,303.75
2023-03-26T08:42:10.068Z,315.00
2023-03-26T08:43:10.045Z,315.00
2023-03-26T08:44:10.046Z,292.50
2023-03-26T08:45:10.115Z,281.25
2023-03-26T08:46:10.108Z,264.38
2023-03-26T08:47:10.033Z,236.25
2023-03-26T08:48:09.985Z,219.38
2023-03-26T08:49:10.011Z,196.88
2023-03-26T08:50:09.962Z,174.38
2023-03-26T08:51:09.947Z,157.50
2023-03-26T08:52:09.975Z,151.88
2023-03-26T08:53:10.016Z,146.25
2023-03-26T08:54:09.915Z,135.00
2023-03-26T08:55:09.926Z,118.12
2023-03-26T08:56:09.926Z,112.50
2023-03-26T08:57:09.969Z,112.50
2023-03-26T08:58:09.898Z,106.88
2023-03-26T08:59:09.890Z,106.88
2023-03-26T09:00:09.861Z,112.50
2023-03-26T09:01:09.913Z,123.75
2023-03-26T09:02:09.919Z,140.62
2023-03-26T09:03:09.871Z,135.00
2023-03-26T09:04:09.930Z,140.62
2023-03-26T09:05:09.824Z,146.25
2023-03-26T09:06:09.801Z,151.88
2023-03-26T09:07:09.886Z,157.50
2023-03-26T09:08:09.820Z,168.75
2023-03-26T09:09:09.798Z,180.00
2023-03-26T09:10:10.756Z,191.25
2023-03-26T09:11:09.786Z,202.50
2023-03-26T09:12:09.760Z,213.75
2023-03-26T09:13:09.744Z,219.38
2023-03-26T09:14:09.709Z,213.75
2023-03-26T09:15:09.707Z,208.12
2023-03-26T09:16:09.724Z,202.50
2023-03-26T09:17:09.775Z,213.75
2023-03-26T09:18:09.738Z,213.75
2023-03-26T09:19:09.660Z,208.12
2023-03-26T09:20:09.676Z,196.88
2023-03-26T09:21:09.709Z,180.00
2023-03-26T09:22:09.627Z,163.12
2023-03-26T09:23:09.651Z,163.12
2023-03-26T09:24:09.633Z,157.50
2023-03-26T09:25:09.630Z,146.25
2023-03-26T09:26:09.604Z,140.62
2023-03-26T09:27:09.581Z,135.00
2023-03-26T09:28:09.813Z,129.38
2023-03-26T09:29:09.666Z,118.12
2023-03-26T09:30:09.709Z,118.12
2023-03-26T09:31:09.692Z,123.75
2023-03-26T09:32:09.688Z,123.75
2023-03-26T09:33:09.585Z,112.50
2023-03-26T09:34:09.532Z,101.25
2023-03-26T09:35:11.823Z,90.00
2023-03-26T09:36:09.548Z,78.75
2023-03-26T09:37:09.505Z,73.12
2023-03-26T09:38:09.492Z,67.50
2023-03-26T09:39:09.471Z,67.50
2023-03-26T09:40:09.442Z,67.50
2023-03-26T09:41:09.481Z,73.12
2023-03-26T09:42:09.445Z,84.38
2023-03-26T09:43:09.414Z,90.00
2023-03-26T09:44:09.401Z,101.25
2023-03-26T09:45:09.476Z,112.50
2023-03-26T09:46:09.455Z,118.12
2023-03-26T09:47:09.391Z,123.75
2023-03-26T09:48:09.361Z,123.75
2023-03-26T09:49:09.371Z,129.38
2023-03-26T09:50:09.393Z,129.38
2023-03-26T09:51:09.384Z,123.75
2023-03-26T09:52:09.350Z,112.50
2023-03-26T09:53:09.353Z,112.50
2023-03-26T09:54:09.326Z,118.12
2023-03-26T09:55:09.311Z,123.75
2023-03-26T09:56:09.330Z,146.25
2023-03-26T09:57:09.339Z,168.75
2023-03-26T09:58:09.305Z,185.62
2023-03-26T09:59:09.296Z,196.88
2023-03-26T10:00:09.254Z,196.88
2023-03-26T10:01:09.268Z,196.88
2023-03-26T10:02:09.230Z,185.62
2023-03-26T10:03:09.237Z,174.38
2023-03-26T10:04:09.229Z,163.12
2023-03-26T10:05:09.212Z,157.50
2023-03-26T10:06:09.167Z,163.12
2023-03-26T10:07:09.251Z,163.12
2023-03-26T10:08:09.149Z,168.75
2023-03-26T10:09:09.164Z,180.00
2023-03-26T10:10:09.136Z,185.62
2023-03-26T10:11:09.269Z,191.25
2023-03-26T10:12:09.111Z,191.25
2023-03-26T10:13:14.763Z,202.50
2023-03-26T10:14:10.132Z,213.75
2023-03-26T10:15:09.087Z,225.00
2023-03-26T10:16:09.088Z,236.25
2023-03-26T10:17:09.068Z,253.12
2023-03-26T10:18:26.980Z,258.75
2023-03-26T10:19:10.031Z,270.00
2023-03-26T10:20:09.056Z,281.25
2023-03-26T10:21:09.091Z,286.88
2023-03-26T10:22:09.017Z,298.12
2023-03-26T10:23:08.989Z,309.38
2023-03-26T10:24:08.988Z,309.38
2023-03-26T10:25:09.003Z,309.38
2023-03-26T10:26:08.973Z,309.38
2023-03-26T10:27:10.831Z,303.75
2023-03-26T10:28:08.957Z,309.38
2023-03-26T10:29:08.945Z,309.38
2023-03-26T10:30:08.981Z,309.38
2023-03-26T10:31:08.951Z,309.38
2023-03-26T10:32:08.960Z,298.12
2023-03-26T10:33:08.929Z,286.88
2023-03-26T10:34:08.892Z,281.25
2023-03-26T10:35:09.857Z,270.00
2023-03-26T10:36:08.923Z,258.75
2023-03-26T10:37:08.920Z,236.25
2023-03-26T10:38:08.829Z,219.38
2023-03-26T10:39:08.810Z,208.12
2023-03-26T10:40:08.812Z,196.88
2023-03-26T10:41:08.810Z,191.25
2023-03-26T10:42:08.832Z,174.38
2023-03-26T10:43:08.833Z,168.75
2023-03-26T10:44:09.247Z,163.12
2023-03-26T10:45:08.772Z,157.50
2023-03-26T10:46:08.854Z,163.12
2023-03-26T10:47:08.765Z,163.12
2023-03-26T10:48:08.824Z,168.75
2023-03-26T10:49:08.794Z,180.00
2023-03-26T10:50:08.802Z,185.62
2023-03-26T10:51:08.717Z,196.88
2023-03-26T10:52:08.705Z,208.12
2023-03-26T10:53:08.726Z,219.38
2023-03-26T10:54:08.653Z,230.62
2023-03-26T10:55:08.663Z,236.25
2023-03-26T10:56:08.637Z,247.50
2023-03-26T10:57:08.664Z,264.38
2023-03-26T10:58:08.642Z,275.62
2023-03-26T10:59:08.608Z,281.25
2023-03-26T11:00:08.669Z,292.50
2023-03-26T11:01:08.679Z,303.75
2023-03-26T11:02:08.639Z,309.38
2023-03-26T11:03:08.621Z,309.38
2023-03-26T11:04:08.630Z,320.62
2023-03-26T11:05:08.612Z,320.62
2023-03-26T11:06:08.531Z,331.88
2023-03-26T11:07:08.749Z,343.12
2023-03-26T11:08:08.544Z,354.38
2023-03-26T11:09:08.536Z,360.00
2023-03-26T11:10:08.620Z,365.62
2023-03-26T11:11:08.567Z,365.62
2023-03-26T11:12:26.898Z,365.62
2023-03-26T11:13:09.472Z,365.62
2023-03-26T11:14:08.480Z,371.25
2023-03-26T11:15:08.577Z,360.00
2023-03-26T11:16:08.512Z,354.38
2023-03-26T11:17:08.456Z,360.00
2023-03-26T11:18:09.446Z,365.62
2023-03-26T11:19:08.426Z,371.25
2023-03-26T11:20:08.431Z,382.50
2023-03-26T11:21:18.819Z,393.75
2023-03-26T11:22:09.401Z,551.25
2023-03-26T11:23:08.350Z,511.88
2023-03-26T11:24:08.416Z,438.75
2023-03-26T11:25:08.356Z,382.50
2023-03-26T11:26:08.379Z,360.00
2023-03-26T11:27:15.373Z,416.25
2023-03-26T11:28:09.346Z,343.12
2023-03-26T11:29:32.938Z,348.75
2023-03-26T11:30:09.285Z,337.50
2023-03-26T11:31:08.324Z,421.88
2023-03-26T11:32:08.284Z,472.50
2023-03-26T11:33:08.268Z,348.75
2023-03-26T11:34:08.334Z,410.62
2023-03-26T11:35:08.246Z,489.38
2023-03-26T11:36:08.234Z,613.12
2023-03-26T11:37:08.250Z,708.75
2023-03-26T11:38:08.212Z,388.12
2023-03-26T11:39:08.211Z,337.50
2023-03-26T11:40:08.181Z,455.62
2023-03-26T11:41:08.228Z,309.38
2023-03-26T11:42:08.191Z,298.12
2023-03-26T11:43:08.159Z,298.12
2023-03-26T11:44:08.174Z,315.00
2023-03-26T11:45:08.192Z,360.00
2023-03-26T11:46:08.164Z,416.25
2023-03-26T11:47:08.118Z,309.38
2023-03-26T11:48:08.186Z,303.75
2023-03-26T11:49:08.108Z,303.75
2023-03-26T11:50:08.074Z,298.12
2023-03-26T11:51:08.173Z,292.50
2023-03-26T11:52:08.139Z,286.88
2023-03-26T11:53:08.062Z,292.50
2023-03-26T11:54:08.106Z,309.38
2023-03-26T11:55:08.062Z,573.75
2023-03-26T11:56:08.067Z,376.88
2023-03-26T11:57:08.112Z,382.50
2023-03-26T11:58:08.070Z,337.50
2023-03-26T11:59:08.166Z,331.88
2023-03-26T12:00:08.022Z,309.38
2023-03-26T12:01:08.070Z,320.62
2023-03-26T12:02:08.054Z,309.38
2023-03-26T12:03:08.040Z,320.62
2023-03-26T12:04:07.961Z,326.25
2023-03-26T12:05:07.895Z,326.25
2023-03-26T12:06:07.906Z,326.25
2023-03-26T12:07:07.894Z,343.12
2023-03-26T12:08:07.875Z,303.75
2023-03-26T12:09:07.872Z,298.12
2023-03-26T12:10:18.614Z,337.50
2023-03-26T12:11:08.863Z,309.38
2023-03-26T12:12:07.865Z,320.62
2023-03-26T12:13:07.853Z,388.12
2023-03-26T12:14:07.857Z,360.00
2023-03-26T12:15:07.830Z,365.62
2023-03-26T12:16:07.860Z,365.62
2023-03-26T12:17:07.822Z,376.88
2023-03-26T12:18:07.815Z,410.62
2023-03-26T12:19:07.826Z,371.25
2023-03-26T12:20:07.797Z,348.75
2023-03-26T12:21:08.327Z,315.00
2023-03-26T12:22:07.752Z,281.25
2023-03-26T12:23:07.693Z,281.25
2023-03-26T12:24:07.737Z,292.50
2023-03-26T12:25:07.728Z,298.12
2023-03-26T12:26:07.717Z,315.00
2023-03-26T12:27:07.889Z,382.50
2023-03-26T12:28:07.688Z,326.25
2023-03-26T12:29:07.651Z,315.00
2023-03-26T12:30:07.677Z,405.00
2023-03-26T12:31:07.655Z,315.00
2023-03-26T12:32:07.712Z,433.12
2023-03-26T12:33:07.639Z,416.25
2023-03-26T12:34:07.647Z,562.50
2023-03-26T12:35:07.581Z,590.62
2023-03-26T12:36:08.040Z,388.12
2023-03-26T12:37:07.581Z,551.25
2023-03-26T12:38:07.602Z,528.75
2023-03-26T12:40:06.091Z,511.88
2023-03-26T12:40:13.730Z,478.12
2023-03-26T12:41:08.571Z,495.00
2023-03-26T12:44:43.869Z,506.25
2023-03-26T12:44:51.503Z,478.12
2023-03-26T12:44:56.640Z,511.88
2023-03-26T12:45:08.482Z,472.50
2023-03-26T12:47:56.321Z,388.12
2023-03-26T12:47:57.823Z,438.75
2023-03-26T12:48:08.525Z,444.38
2023-03-26T12:49:07.590Z,455.62
2023-03-26T12:50:07.436Z,461.25
2023-03-26T12:51:07.548Z,478.12